Darien, GA (31305)

4:44 AM EST on February 23, 2017 (GMT -0500)
Country Walk | | Change Station

Elev 30 ft 31.27 °N, 81.48 °W | Updated 7 seconds ago

Partly Cloudy
Partly Cloudy
63.7 °F
Feels Like 63.7 °F
N
0.0
Wind Variable Wind from NE
Gusts 6.0 mph

Today
High -- | Low -- °F
--% Chance of Precip.
Yesterday
High -- | Low -- °F
Precip. -- in
Pressure 29.75 in
Visibility 10.0 miles
Clouds Clear
Dew Point 62 °F
Humidity 95%
Rainfall 0.00 in
Snow Depth Not available.
6:58 AM 6:19 PM
Waning Crescent, 11% visible
METAR KBQK 230935Z AUTO 02006KT 10SM CLR 17/17 A2975 RMK AO2
Pressure 29.75 in
Visibility 10.0 miles
Clouds Clear
Dew Point 62 °F
Humidity 95%
Rainfall 0.00 in
Snow Depth Not available.
6:58 AM 6:19 PM
Waning Crescent, 11% visible
METAR KBQK 230935Z AUTO 02006KT 10SM CLR 17/17 A2975 RMK AO2

Get Your Daily Forecast Email!

Thanks for signing up!

Be on the lookout for a verification email in your inbox.

You'll start receiving the daily forecast at 8 AM.

×

10-Day Weather Forecast

Almanac

Astronomy

Feb. 23, 2017 Rise Set
Actual Time
Civil Twilight
Nautical Twilight
Astronomical Twilight
Moon
Length of Visible Light
Length of Day
Tomorrow will be .
, % of the Moon is Illuminated

Today's Extremes

State Highs State Lows

Community

WunderPhotos

Upload Photos

1,962,540 photos uploaded!

WunderBlog® & News

Nearby

Air Quality

  Air Quality AQ Index Pollutant
Not available.

Snow Depth

Station Depth Elevation

Earthquake Activity

City Distance Mag. Time & Date
Minimum magnitude displayed is 2.5.

Coastal Water Temperatures

Place Temperature

Stations

Nearby Weather Stations

Station Location Temp. Windchill Dew Point Humidity Wind Precip. Elev Updated Type
                   

Watches & Warnings

There are currently no watches in effect.